sensor_id;sensor_type;location;lat;lon;timestamp;pressure;altitude;pressure_sealevel;temperature;humidity
57900;BME280;60605;53.716;19.940;2023-01-29T00:00:47;101056.03;;;-0.95;100.00
57900;BME280;60605;53.716;19.940;2023-01-29T00:06:10;101043.33;;;-0.92;100.00
57900;BME280;60605;53.716;19.940;2023-01-29T00:11:14;101038.58;;;-0.93;100.00
57900;BME280;60605;53.716;19.940;2023-01-29T00:16:22;101039.08;;;-0.92;100.00
57900;BME280;60605;53.716;19.940;2023-01-29T00:21:26;101030.59;;;-0.90;100.00
57900;BME280;60605;53.716;19.940;2023-01-29T00:26:29;101026.46;;;-0.87;100.00
57900;BME280;60605;53.716;19.940;2023-01-29T00:31:33;101027.59;;;-0.85;100.00
57900;BME280;60605;53.716;19.940;2023-01-29T00:36:36;101032.38;;;-0.82;100.00
57900;BME280;60605;53.716;19.940;2023-01-29T00:41:39;101029.83;;;-0.80;100.00
57900;BME280;60605;53.716;19.940;2023-01-29T00:47:01;101027.66;;;-0.78;100.00
57900;BME280;60605;53.716;19.940;2023-01-29T00:52:04;101029.16;;;-0.77;100.00
57900;BME280;60605;53.716;19.940;2023-01-29T00:57:28;101030.09;;;-0.74;100.00
57900;BME280;60605;53.716;19.940;2023-01-29T01:02:32;101031.92;;;-0.71;100.00
57900;BME280;60605;53.716;19.940;2023-01-29T01:07:55;101032.54;;;-0.69;100.00
57900;BME280;60605;53.716;19.940;2023-01-29T01:13:05;101024.92;;;-0.68;100.00
57900;BME280;60605;53.716;19.940;2023-01-29T01:18:08;101015.39;;;-0.66;100.00
57900;BME280;60605;53.716;19.940;2023-01-29T01:23:11;101009.02;;;-0.65;100.00
57900;BME280;60605;53.716;19.940;2023-01-29T01:28:14;101002.31;;;-0.64;100.00
57900;BME280;60605;53.716;19.940;2023-01-29T01:33:18;101003.59;;;-0.65;100.00
57900;BME280;60605;53.716;19.940;2023-01-29T01:38:22;101015.60;;;-0.67;100.00
57900;BME280;60605;53.716;19.940;2023-01-29T01:43:25;101022.13;;;-0.67;100.00
57900;BME280;60605;53.716;19.940;2023-01-29T01:48:28;101020.69;;;-0.67;100.00
57900;BME280;60605;53.716;19.940;2023-01-29T01:58:47;101014.61;;;-0.65;100.00
57900;BME280;60605;53.716;19.940;2023-01-29T02:04:02;101008.47;;;-0.64;100.00
57900;BME280;60605;53.716;19.940;2023-01-29T02:09:30;100994.38;;;-0.63;100.00
57900;BME280;60605;53.716;19.940;2023-01-29T02:14:39;100989.73;;;-0.61;100.00
57900;BME280;60605;53.716;19.940;2023-01-29T02:35:44;100944.65;;;-0.53;100.00
57900;BME280;60605;53.716;19.940;2023-01-29T02:41:07;100932.65;;;-0.51;100.00
57900;BME280;60605;53.716;19.940;2023-01-29T02:51:35;100938.75;;;-0.50;100.00
57900;BME280;60605;53.716;19.940;2023-01-29T02:56:49;100939.45;;;-0.51;100.00
57900;BME280;60605;53.716;19.940;2023-01-29T03:01:57;100936.53;;;-0.52;100.00
57900;BME280;60605;53.716;19.940;2023-01-29T03:07:06;100927.80;;;-0.53;100.00
57900;BME280;60605;53.716;19.940;2023-01-29T03:12:18;100924.85;;;-0.53;100.00
57900;BME280;60605;53.716;19.940;2023-01-29T03:17:40;100921.60;;;-0.55;100.00
57900;BME280;60605;53.716;19.940;2023-01-29T03:22:50;100911.66;;;-0.56;100.00
57900;BME280;60605;53.716;19.940;2023-01-29T03:27:58;100906.58;;;-0.56;100.00
57900;BME280;60605;53.716;19.940;2023-01-29T03:33:24;100908.83;;;-0.56;100.00
57900;BME280;60605;53.716;19.940;2023-01-29T03:38:28;100905.66;;;-0.56;100.00
57900;BME280;60605;53.716;19.940;2023-01-29T03:43:42;100898.48;;;-0.56;100.00
57900;BME280;60605;53.716;19.940;2023-01-29T03:54:24;100895.58;;;-0.57;100.00
57900;BME280;60605;53.716;19.940;2023-01-29T03:59:54;100900.14;;;-0.58;100.00
57900;BME280;60605;53.716;19.940;2023-01-29T04:05:08;100900.14;;;-0.58;100.00
57900;BME280;60605;53.716;19.940;2023-01-29T04:10:18;100885.23;;;-0.58;100.00
57900;BME280;60605;53.716;19.940;2023-01-29T04:15:26;100869.06;;;-0.57;100.00
57900;BME280;60605;53.716;19.940;2023-01-29T04:20:31;100858.14;;;-0.56;100.00
57900;BME280;60605;53.716;19.940;2023-01-29T04:25:42;100860.59;;;-0.56;100.00
57900;BME280;60605;53.716;19.940;2023-01-29T04:31:05;100851.67;;;-0.56;100.00
57900;BME280;60605;53.716;19.940;2023-01-29T04:36:35;100847.61;;;-0.56;100.00
57900;BME280;60605;53.716;19.940;2023-01-29T04:42:19;100838.13;;;-0.56;100.00
57900;BME280;60605;53.716;19.940;2023-01-29T04:52:46;100825.54;;;-0.56;100.00
57900;BME280;60605;53.716;19.940;2023-01-29T04:58:02;100828.38;;;-0.57;100.00
57900;BME280;60605;53.716;19.940;2023-01-29T05:03:07;100827.98;;;-0.56;100.00
57900;BME280;60605;53.716;19.940;2023-01-29T05:08:16;100824.54;;;-0.54;100.00
57900;BME280;60605;53.716;19.940;2023-01-29T05:13:22;100829.73;;;-0.52;100.00
57900;BME280;60605;53.716;19.940;2023-01-29T05:18:28;100832.85;;;-0.51;100.00
57900;BME280;60605;53.716;19.940;2023-01-29T05:23:31;100823.66;;;-0.50;100.00
57900;BME280;60605;53.716;19.940;2023-01-29T05:28:34;100812.08;;;-0.50;100.00
57900;BME280;60605;53.716;19.940;2023-01-29T05:33:37;100812.91;;;-0.49;100.00
57900;BME280;60605;53.716;19.940;2023-01-29T05:38:40;100816.94;;;-0.49;100.00
57900;BME280;60605;53.716;19.940;2023-01-29T05:43:43;100825.20;;;-0.49;100.00
57900;BME280;60605;53.716;19.940;2023-01-29T05:48:46;100828.10;;;-0.47;100.00
57900;BME280;60605;53.716;19.940;2023-01-29T05:53:49;100813.31;;;-0.46;100.00
57900;BME280;60605;53.716;19.940;2023-01-29T05:58:53;100802.02;;;-0.45;100.00
57900;BME280;60605;53.716;19.940;2023-01-29T06:03:56;100805.14;;;-0.44;100.00
57900;BME280;60605;53.716;19.940;2023-01-29T06:08:59;100800.15;;;-0.43;100.00
57900;BME280;60605;53.716;19.940;2023-01-29T06:14:02;100801.27;;;-0.40;100.00
57900;BME280;60605;53.716;19.940;2023-01-29T06:19:05;100804.85;;;-0.38;100.00
57900;BME280;60605;53.716;19.940;2023-01-29T06:24:09;100795.98;;;-0.36;100.00
57900;BME280;60605;53.716;19.940;2023-01-29T06:29:12;100795.58;;;-0.35;100.00
57900;BME280;60605;53.716;19.940;2023-01-29T06:34:15;100804.84;;;-0.34;100.00
57900;BME280;60605;53.716;19.940;2023-01-29T06:39:18;100807.73;;;-0.32;100.00
57900;BME280;60605;53.716;19.940;2023-01-29T06:44:21;100800.80;;;-0.30;100.00
57900;BME280;60605;53.716;19.940;2023-01-29T06:49:24;100803.66;;;-0.28;100.00
57900;BME280;60605;53.716;19.940;2023-01-29T06:54:27;100802.05;;;-0.27;100.00
57900;BME280;60605;53.716;19.940;2023-01-29T06:59:32;100792.27;;;-0.24;100.00
57900;BME280;60605;53.716;19.940;2023-01-29T07:04:35;100795.27;;;-0.21;100.00
57900;BME280;60605;53.716;19.940;2023-01-29T07:09:41;100798.09;;;-0.17;100.00
57900;BME280;60605;53.716;19.940;2023-01-29T07:14:45;100794.96;;;-0.15;100.00
57900;BME280;60605;53.716;19.940;2023-01-29T07:19:48;100798.04;;;-0.13;100.00
57900;BME280;60605;53.716;19.940;2023-01-29T07:24:51;100802.45;;;-0.10;100.00
57900;BME280;60605;53.716;19.940;2023-01-29T07:29:54;100801.59;;;-0.06;100.00
57900;BME280;60605;53.716;19.940;2023-01-29T07:34:57;100793.35;;;-0.03;100.00
57900;BME280;60605;53.716;19.940;2023-01-29T07:40:01;100783.84;;;0.02;100.00
57900;BME280;60605;53.716;19.940;2023-01-29T07:45:06;100767.34;;;0.09;100.00
57900;BME280;60605;53.716;19.940;2023-01-29T07:50:10;100758.16;;;0.17;100.00
57900;BME280;60605;53.716;19.940;2023-01-29T07:55:14;100758.26;;;0.26;100.00
57900;BME280;60605;53.716;19.940;2023-01-29T08:00:18;100753.08;;;0.34;100.00
57900;BME280;60605;53.716;19.940;2023-01-29T08:05:21;100748.48;;;0.45;100.00
57900;BME280;60605;53.716;19.940;2023-01-29T08:10:25;100747.23;;;0.55;100.00
57900;BME280;60605;53.716;19.940;2023-01-29T08:15:29;100743.98;;;0.64;100.00
57900;BME280;60605;53.716;19.940;2023-01-29T08:20:32;100749.27;;;0.77;100.00
57900;BME280;60605;53.716;19.940;2023-01-29T08:25:35;100741.79;;;0.86;100.00
57900;BME280;60605;53.716;19.940;2023-01-29T08:30:39;100731.55;;;0.93;100.00
57900;BME280;60605;53.716;19.940;2023-01-29T08:35:48;100721.97;;;0.98;100.00
57900;BME280;60605;53.716;19.940;2023-01-29T08:40:51;100719.98;;;1.02;100.00
57900;BME280;60605;53.716;19.940;2023-01-29T08:45:55;100713.02;;;1.04;100.00
57900;BME280;60605;53.716;19.940;2023-01-29T08:51:00;100708.13;;;1.06;100.00
57900;BME280;60605;53.716;19.940;2023-01-29T08:56:05;100706.33;;;1.10;100.00
57900;BME280;60605;53.716;19.940;2023-01-29T09:01:10;100704.93;;;1.13;100.00
57900;BME280;60605;53.716;19.940;2023-01-29T09:06:14;100703.39;;;1.19;100.00
57900;BME280;60605;53.716;19.940;2023-01-29T09:11:17;100705.43;;;1.30;100.00
57900;BME280;60605;53.716;19.940;2023-01-29T09:16:21;100716.12;;;1.40;100.00
57900;BME280;60605;53.716;19.940;2023-01-29T09:21:24;100720.01;;;1.46;100.00
57900;BME280;60605;53.716;19.940;2023-01-29T09:26:27;100724.29;;;1.48;100.00
57900;BME280;60605;53.716;19.940;2023-01-29T09:31:30;100719.36;;;1.51;100.00
57900;BME280;60605;53.716;19.940;2023-01-29T09:36:34;100708.80;;;1.54;100.00
57900;BME280;60605;53.716;19.940;2023-01-29T09:46:50;100700.31;;;1.55;100.00
57900;BME280;60605;53.716;19.940;2023-01-29T09:52:03;100696.73;;;1.53;100.00
57900;BME280;60605;53.716;19.940;2023-01-29T09:57:09;100692.36;;;1.59;100.00
57900;BME280;60605;53.716;19.940;2023-01-29T10:23:33;100660.03;;;2.30;100.00
57900;BME280;60605;53.716;19.940;2023-01-29T10:28:47;100650.73;;;2.27;100.00
57900;BME280;60605;53.716;19.940;2023-01-29T10:33:59;100646.99;;;2.15;100.00
57900;BME280;60605;53.716;19.940;2023-01-29T10:39:14;100636.61;;;2.07;100.00
57900;BME280;60605;53.716;19.940;2023-01-29T11:00:12;100598.27;;;2.06;100.00
57900;BME280;60605;53.716;19.940;2023-01-29T11:05:35;100598.52;;;2.04;100.00
57900;BME280;60605;53.716;19.940;2023-01-29T11:10:44;100592.25;;;2.03;100.00
57900;BME280;60605;53.716;19.940;2023-01-29T11:15:51;100584.16;;;2.03;100.00
57900;BME280;60605;53.716;19.940;2023-01-29T11:21:01;100575.13;;;2.04;100.00
57900;BME280;60605;53.716;19.940;2023-01-29T11:26:05;100569.86;;;2.09;100.00
57900;BME280;60605;53.716;19.940;2023-01-29T11:31:36;100562.69;;;2.11;100.00
57900;BME280;60605;53.716;19.940;2023-01-29T11:36:41;100557.50;;;2.13;100.00
57900;BME280;60605;53.716;19.940;2023-01-29T11:47:18;100554.41;;;2.31;100.00
57900;BME280;60605;53.716;19.940;2023-01-29T11:52:26;100543.24;;;2.43;100.00
57900;BME280;60605;53.716;19.940;2023-01-29T11:57:40;100539.27;;;2.48;100.00
57900;BME280;60605;53.716;19.940;2023-01-29T12:02:48;100538.80;;;2.47;100.00
57900;BME280;60605;53.716;19.940;2023-01-29T12:07:57;100521.35;;;2.47;100.00
57900;BME280;60605;53.716;19.940;2023-01-29T12:23:15;100509.88;;;2.25;100.00
57900;BME280;60605;53.716;19.940;2023-01-29T12:28:33;100504.77;;;2.19;100.00
57900;BME280;60605;53.716;19.940;2023-01-29T12:34:43;100499.95;;;2.17;100.00
57900;BME280;60605;53.716;19.940;2023-01-29T12:39:18;100502.44;;;2.17;100.00
57900;BME280;60605;53.716;19.940;2023-01-29T12:44:39;100503.02;;;2.16;100.00
57900;BME280;60605;53.716;19.940;2023-01-29T12:49:54;100502.12;;;2.16;100.00
57900;BME280;60605;53.716;19.940;2023-01-29T12:55:02;100521.17;;;2.16;100.00
57900;BME280;60605;53.716;19.940;2023-01-29T13:00:32;100529.23;;;2.11;100.00
57900;BME280;60605;53.716;19.940;2023-01-29T13:06:02;100523.60;;;2.06;100.00
57900;BME280;60605;53.716;19.940;2023-01-29T13:11:16;100508.67;;;1.99;100.00
57900;BME280;60605;53.716;19.940;2023-01-29T13:16:26;100496.20;;;1.95;100.00
57900;BME280;60605;53.716;19.940;2023-01-29T13:21:40;100481.55;;;1.96;100.00
57900;BME280;60605;53.716;19.940;2023-01-29T13:26:46;100471.55;;;1.95;100.00
57900;BME280;60605;53.716;19.940;2023-01-29T13:31:53;100465.67;;;1.93;100.00
57900;BME280;60605;53.716;19.940;2023-01-29T13:37:00;100465.45;;;1.92;100.00
57900;BME280;60605;53.716;19.940;2023-01-29T13:42:16;100458.22;;;1.89;100.00
57900;BME280;60605;53.716;19.940;2023-01-29T13:47:35;100457.13;;;1.84;100.00
57900;BME280;60605;53.716;19.940;2023-01-29T13:52:44;100449.27;;;1.79;100.00
57900;BME280;60605;53.716;19.940;2023-01-29T13:57:51;100448.48;;;1.75;100.00
57900;BME280;60605;53.716;19.940;2023-01-29T14:18:27;100447.31;;;1.60;100.00
57900;BME280;60605;53.716;19.940;2023-01-29T14:34:25;100440.83;;;1.47;100.00
57900;BME280;60605;53.716;19.940;2023-01-29T14:39:34;100432.11;;;1.43;100.00
57900;BME280;60605;53.716;19.940;2023-01-29T14:54:52;100431.57;;;1.35;100.00
57900;BME280;60605;53.716;19.940;2023-01-29T15:00:00;100443.67;;;1.32;100.00
57900;BME280;60605;53.716;19.940;2023-01-29T15:05:16;100438.86;;;1.31;100.00
57900;BME280;60605;53.716;19.940;2023-01-29T15:10:44;100438.58;;;1.29;100.00
57900;BME280;60605;53.716;19.940;2023-01-29T15:16:02;100436.61;;;1.27;100.00
57900;BME280;60605;53.716;19.940;2023-01-29T15:26:21;100438.38;;;1.24;100.00
57900;BME280;60605;53.716;19.940;2023-01-29T15:31:30;100417.52;;;1.23;100.00
57900;BME280;60605;53.716;19.940;2023-01-29T15:36:35;100402.45;;;1.22;100.00
57900;BME280;60605;53.716;19.940;2023-01-29T15:41:39;100393.89;;;1.21;100.00
57900;BME280;60605;53.716;19.940;2023-01-29T15:46:47;100389.20;;;1.20;100.00
57900;BME280;60605;53.716;19.940;2023-01-29T15:51:57;100390.50;;;1.19;100.00
57900;BME280;60605;53.716;19.940;2023-01-29T15:57:02;100392.44;;;1.19;100.00
57900;BME280;60605;53.716;19.940;2023-01-29T16:07:38;100392.90;;;1.20;100.00
57900;BME280;60605;53.716;19.940;2023-01-29T16:12:42;100380.93;;;1.20;100.00
57900;BME280;60605;53.716;19.940;2023-01-29T16:17:46;100377.59;;;1.20;100.00
57900;BME280;60605;53.716;19.940;2023-01-29T16:22:51;100367.04;;;1.20;100.00
57900;BME280;60605;53.716;19.940;2023-01-29T16:27:56;100349.48;;;1.20;100.00
57900;BME280;60605;53.716;19.940;2023-01-29T16:33:02;100335.23;;;1.20;100.00
57900;BME280;60605;53.716;19.940;2023-01-29T16:38:25;100330.10;;;1.20;100.00
57900;BME280;60605;53.716;19.940;2023-01-29T16:48:44;100320.34;;;1.21;100.00
57900;BME280;60605;53.716;19.940;2023-01-29T16:54:12;100312.63;;;1.21;100.00
57900;BME280;60605;53.716;19.940;2023-01-29T16:59:38;100318.79;;;1.21;100.00
57900;BME280;60605;53.716;19.940;2023-01-29T17:04:45;100322.69;;;1.20;100.00
57900;BME280;60605;53.716;19.940;2023-01-29T17:09:52;100330.76;;;1.21;100.00
57900;BME280;60605;53.716;19.940;2023-01-29T17:14:59;100330.09;;;1.20;100.00
57900;BME280;60605;53.716;19.940;2023-01-29T17:20:12;100330.12;;;1.20;100.00
57900;BME280;60605;53.716;19.940;2023-01-29T17:25:20;100325.23;;;1.19;100.00
57900;BME280;60605;53.716;19.940;2023-01-29T17:30:26;100331.02;;;1.19;100.00
57900;BME280;60605;53.716;19.940;2023-01-29T17:35:34;100329.45;;;1.19;100.00
57900;BME280;60605;53.716;19.940;2023-01-29T17:40:48;100323.45;;;1.19;100.00
57900;BME280;60605;53.716;19.940;2023-01-29T17:45:53;100311.90;;;1.18;100.00
57900;BME280;60605;53.716;19.940;2023-01-29T17:51:01;100299.09;;;1.18;100.00
57900;BME280;60605;53.716;19.940;2023-01-29T17:56:06;100289.98;;;1.17;100.00
57900;BME280;60605;53.716;19.940;2023-01-29T18:01:10;100279.32;;;1.16;100.00
57900;BME280;60605;53.716;19.940;2023-01-29T18:06:32;100274.14;;;1.15;100.00
57900;BME280;60605;53.716;19.940;2023-01-29T18:11:37;100266.48;;;1.14;100.00
57900;BME280;60605;53.716;19.940;2023-01-29T18:16:42;100260.83;;;1.14;100.00
57900;BME280;60605;53.716;19.940;2023-01-29T18:21:46;100251.35;;;1.13;100.00
57900;BME280;60605;53.716;19.940;2023-01-29T18:26:50;100243.45;;;1.13;100.00
57900;BME280;60605;53.716;19.940;2023-01-29T18:31:54;100235.71;;;1.13;100.00
57900;BME280;60605;53.716;19.940;2023-01-29T18:36:58;100226.38;;;1.13;100.00
57900;BME280;60605;53.716;19.940;2023-01-29T18:42:02;100214.67;;;1.12;100.00
57900;BME280;60605;53.716;19.940;2023-01-29T18:47:06;100203.73;;;1.13;100.00
57900;BME280;60605;53.716;19.940;2023-01-29T18:52:09;100194.60;;;1.13;100.00
57900;BME280;60605;53.716;19.940;2023-01-29T18:57:15;100186.52;;;1.12;100.00
57900;BME280;60605;53.716;19.940;2023-01-29T19:02:40;100169.08;;;1.10;100.00
57900;BME280;60605;53.716;19.940;2023-01-29T19:07:45;100149.82;;;1.09;100.00
57900;BME280;60605;53.716;19.940;2023-01-29T19:12:50;100141.62;;;1.08;100.00
57900;BME280;60605;53.716;19.940;2023-01-29T19:17:55;100140.63;;;1.07;100.00
57900;BME280;60605;53.716;19.940;2023-01-29T19:22:59;100137.15;;;1.06;100.00
57900;BME280;60605;53.716;19.940;2023-01-29T19:28:04;100133.79;;;1.07;100.00
57900;BME280;60605;53.716;19.940;2023-01-29T19:33:09;100131.60;;;1.08;100.00
57900;BME280;60605;53.716;19.940;2023-01-29T19:38:13;100123.84;;;1.08;100.00
57900;BME280;60605;53.716;19.940;2023-01-29T19:43:21;100118.84;;;1.09;100.00
57900;BME280;60605;53.716;19.940;2023-01-29T19:48:25;100111.35;;;1.11;100.00
57900;BME280;60605;53.716;19.940;2023-01-29T19:53:29;100101.95;;;1.12;100.00
57900;BME280;60605;53.716;19.940;2023-01-29T19:58:34;100099.61;;;1.13;100.00
57900;BME280;60605;53.716;19.940;2023-01-29T20:03:38;100102.91;;;1.14;100.00
57900;BME280;60605;53.716;19.940;2023-01-29T20:08:42;100090.76;;;1.14;100.00
57900;BME280;60605;53.716;19.940;2023-01-29T20:13:51;100073.44;;;1.13;100.00
57900;BME280;60605;53.716;19.940;2023-01-29T20:18:54;100070.15;;;1.12;100.00
57900;BME280;60605;53.716;19.940;2023-01-29T20:24:16;100069.64;;;1.11;100.00
57900;BME280;60605;53.716;19.940;2023-01-29T20:29:21;100065.67;;;1.10;100.00
57900;BME280;60605;53.716;19.940;2023-01-29T20:34:24;100058.73;;;1.09;100.00
57900;BME280;60605;53.716;19.940;2023-01-29T20:39:28;100044.69;;;1.08;100.00
57900;BME280;60605;53.716;19.940;2023-01-29T20:44:33;100032.23;;;1.08;100.00
57900;BME280;60605;53.716;19.940;2023-01-29T20:49:37;100015.59;;;1.07;100.00
57900;BME280;60605;53.716;19.940;2023-01-29T20:54:41;100001.33;;;1.07;100.00
57900;BME280;60605;53.716;19.940;2023-01-29T20:59:45;99994.45;;;1.08;100.00
57900;BME280;60605;53.716;19.940;2023-01-29T21:04:48;99981.92;;;1.08;100.00
57900;BME280;60605;53.716;19.940;2023-01-29T21:09:51;99970.42;;;1.09;100.00
57900;BME280;60605;53.716;19.940;2023-01-29T21:14:55;99967.02;;;1.10;100.00
57900;BME280;60605;53.716;19.940;2023-01-29T21:19:59;99956.56;;;1.12;100.00
57900;BME280;60605;53.716;19.940;2023-01-29T21:25:03;99940.66;;;1.13;100.00
57900;BME280;60605;53.716;19.940;2023-01-29T21:30:08;99943.02;;;1.14;100.00
57900;BME280;60605;53.716;19.940;2023-01-29T21:35:13;99931.77;;;1.16;100.00
57900;BME280;60605;53.716;19.940;2023-01-29T21:40:20;99929.39;;;1.18;100.00
57900;BME280;60605;53.716;19.940;2023-01-29T21:45:23;99919.03;;;1.21;100.00
57900;BME280;60605;53.716;19.940;2023-01-29T21:50:27;99910.30;;;1.22;100.00
57900;BME280;60605;53.716;19.940;2023-01-29T21:55:32;99899.61;;;1.24;100.00
57900;BME280;60605;53.716;19.940;2023-01-29T22:00:36;99889.85;;;1.25;100.00
57900;BME280;60605;53.716;19.940;2023-01-29T22:05:40;99881.86;;;1.27;100.00
57900;BME280;60605;53.716;19.940;2023-01-29T22:10:43;99873.05;;;1.27;100.00
57900;BME280;60605;53.716;19.940;2023-01-29T22:15:47;99861.22;;;1.28;100.00
57900;BME280;60605;53.716;19.940;2023-01-29T22:20:53;99864.15;;;1.28;100.00
57900;BME280;60605;53.716;19.940;2023-01-29T22:26:04;99853.57;;;1.28;100.00
57900;BME280;60605;53.716;19.940;2023-01-29T22:31:09;99840.91;;;1.29;100.00
57900;BME280;60605;53.716;19.940;2023-01-29T22:36:12;99831.80;;;1.28;100.00
57900;BME280;60605;53.716;19.940;2023-01-29T22:41:16;99827.43;;;1.28;100.00
57900;BME280;60605;53.716;19.940;2023-01-29T22:46:19;99819.85;;;1.28;100.00
57900;BME280;60605;53.716;19.940;2023-01-29T22:51:22;99810.67;;;1.28;100.00
57900;BME280;60605;53.716;19.940;2023-01-29T22:56:27;99798.84;;;1.29;100.00
57900;BME280;60605;53.716;19.940;2023-01-29T23:01:32;99784.79;;;1.29;100.00
57900;BME280;60605;53.716;19.940;2023-01-29T23:06:36;99776.17;;;1.29;100.00
57900;BME280;60605;53.716;19.940;2023-01-29T23:11:39;99768.91;;;1.29;100.00
57900;BME280;60605;53.716;19.940;2023-01-29T23:16:42;99754.10;;;1.30;100.00
57900;BME280;60605;53.716;19.940;2023-01-29T23:21:45;99733.90;;;1.30;100.00
57900;BME280;60605;53.716;19.940;2023-01-29T23:26:48;99724.59;;;1.29;100.00
57900;BME280;60605;53.716;19.940;2023-01-29T23:32:14;99708.80;;;1.29;100.00
57900;BME280;60605;53.716;19.940;2023-01-29T23:37:17;99701.21;;;1.29;100.00
57900;BME280;60605;53.716;19.940;2023-01-29T23:42:20;99682.91;;;1.29;100.00
57900;BME280;60605;53.716;19.940;2023-01-29T23:47:23;99668.36;;;1.29;100.00
57900;BME280;60605;53.716;19.940;2023-01-29T23:52:26;99654.21;;;1.27;100.00
57900;BME280;60605;53.716;19.940;2023-01-29T23:57:30;99637.73;;;1.27;100.00
